sensor_id;sensor_type;location;lat;lon;timestamp;P1;durP1;ratioP1;P2;durP2;ratioP2
19448;SDS011;9863;49.404;8.246;2022-09-19T00:01:55;416.60;;;209.10;;
19448;SDS011;9863;49.404;8.246;2022-09-19T00:04:25;394.60;;;196.18;;
19448;SDS011;9863;49.404;8.246;2022-09-19T00:06:57;395.55;;;199.57;;
19448;SDS011;9863;49.404;8.246;2022-09-19T00:09:27;393.67;;;196.63;;
19448;SDS011;9863;49.404;8.246;2022-09-19T00:11:58;402.38;;;201.82;;
19448;SDS011;9863;49.404;8.246;2022-09-19T00:14:27;396.50;;;197.20;;
19448;SDS011;9863;49.404;8.246;2022-09-19T00:17:02;392.08;;;196.82;;
19448;SDS011;9863;49.404;8.246;2022-09-19T00:19:35;399.42;;;203.82;;
19448;SDS011;9863;49.404;8.246;2022-09-19T00:22:04;388.55;;;195.30;;
19448;SDS011;9863;49.404;8.246;2022-09-19T00:24:32;387.30;;;193.13;;
19448;SDS011;9863;49.404;8.246;2022-09-19T00:27:14;399.42;;;198.02;;
19448;SDS011;9863;49.404;8.246;2022-09-19T00:29:53;406.83;;;200.98;;
19448;SDS011;9863;49.404;8.246;2022-09-19T00:32:49;401.10;;;192.25;;
19448;SDS011;9863;49.404;8.246;2022-09-19T00:35:18;389.77;;;193.52;;
19448;SDS011;9863;49.404;8.246;2022-09-19T00:37:47;390.00;;;190.63;;
19448;SDS011;9863;49.404;8.246;2022-09-19T00:40:15;379.13;;;184.55;;
19448;SDS011;9863;49.404;8.246;2022-09-19T00:42:43;382.60;;;190.07;;
19448;SDS011;9863;49.404;8.246;2022-09-19T00:45:12;393.95;;;196.38;;
19448;SDS011;9863;49.404;8.246;2022-09-19T00:47:45;410.17;;;210.77;;
19448;SDS011;9863;49.404;8.246;2022-09-19T00:50:23;393.60;;;191.85;;
19448;SDS011;9863;49.404;8.246;2022-09-19T00:52:57;399.65;;;192.65;;
19448;SDS011;9863;49.404;8.246;2022-09-19T00:55:28;377.17;;;178.55;;
19448;SDS011;9863;49.404;8.246;2022-09-19T00:58:05;385.73;;;193.30;;
19448;SDS011;9863;49.404;8.246;2022-09-19T01:00:59;389.35;;;190.93;;
19448;SDS011;9863;49.404;8.246;2022-09-19T01:03:28;402.80;;;193.95;;
19448;SDS011;9863;49.404;8.246;2022-09-19T01:06:23;390.88;;;192.50;;
19448;SDS011;9863;49.404;8.246;2022-09-19T01:09:39;404.95;;;197.98;;
19448;SDS011;9863;49.404;8.246;2022-09-19T01:12:38;398.65;;;204.27;;
19448;SDS011;9863;49.404;8.246;2022-09-19T01:18:08;384.70;;;187.60;;
19448;SDS011;9863;49.404;8.246;2022-09-19T01:30:18;404.33;;;197.15;;
19448;SDS011;9863;49.404;8.246;2022-09-19T01:32:49;390.35;;;190.65;;
19448;SDS011;9863;49.404;8.246;2022-09-19T01:35:31;399.30;;;193.50;;
19448;SDS011;9863;49.404;8.246;2022-09-19T01:38:03;402.27;;;199.00;;
19448;SDS011;9863;49.404;8.246;2022-09-19T01:40:38;400.40;;;193.57;;
19448;SDS011;9863;49.404;8.246;2022-09-19T01:43:14;390.20;;;192.93;;
19448;SDS011;9863;49.404;8.246;2022-09-19T01:45:43;397.40;;;188.52;;
19448;SDS011;9863;49.404;8.246;2022-09-19T01:48:37;399.83;;;195.60;;
19448;SDS011;9863;49.404;8.246;2022-09-19T01:51:24;402.00;;;185.63;;
19448;SDS011;9863;49.404;8.246;2022-09-19T01:57:17;388.83;;;188.77;;
19448;SDS011;9863;49.404;8.246;2022-09-19T02:02:45;386.83;;;180.90;;
19448;SDS011;9863;49.404;8.246;2022-09-19T02:11:10;392.70;;;192.18;;
19448;SDS011;9863;49.404;8.246;2022-09-19T02:13:51;405.55;;;197.98;;
19448;SDS011;9863;49.404;8.246;2022-09-19T02:16:30;389.73;;;187.45;;
19448;SDS011;9863;49.404;8.246;2022-09-19T02:19:15;384.42;;;183.43;;
19448;SDS011;9863;49.404;8.246;2022-09-19T02:22:10;388.30;;;182.38;;
19448;SDS011;9863;49.404;8.246;2022-09-19T02:25:05;385.20;;;181.15;;
19448;SDS011;9863;49.404;8.246;2022-09-19T02:27:42;393.23;;;190.88;;
19448;SDS011;9863;49.404;8.246;2022-09-19T02:30:18;404.33;;;200.23;;
19448;SDS011;9863;49.404;8.246;2022-09-19T02:32:49;382.00;;;186.20;;
19448;SDS011;9863;49.404;8.246;2022-09-19T02:35:20;389.08;;;200.38;;
19448;SDS011;9863;49.404;8.246;2022-09-19T02:38:25;386.60;;;186.65;;
19448;SDS011;9863;49.404;8.246;2022-09-19T02:44:15;378.02;;;177.35;;
19448;SDS011;9863;49.404;8.246;2022-09-19T02:49:48;398.73;;;185.20;;
19448;SDS011;9863;49.404;8.246;2022-09-19T02:52:29;389.33;;;184.52;;
19448;SDS011;9863;49.404;8.246;2022-09-19T02:55:11;386.88;;;186.50;;
19448;SDS011;9863;49.404;8.246;2022-09-19T02:57:45;387.15;;;181.52;;
19448;SDS011;9863;49.404;8.246;2022-09-19T03:00:16;398.50;;;187.02;;
19448;SDS011;9863;49.404;8.246;2022-09-19T03:02:54;390.35;;;178.40;;
19448;SDS011;9863;49.404;8.246;2022-09-19T03:05:58;382.52;;;173.18;;
19448;SDS011;9863;49.404;8.246;2022-09-19T03:08:30;388.92;;;176.23;;
19448;SDS011;9863;49.404;8.246;2022-09-19T03:11:09;387.48;;;180.77;;
19448;SDS011;9863;49.404;8.246;2022-09-19T03:13:43;403.75;;;179.82;;
19448;SDS011;9863;49.404;8.246;2022-09-19T03:16:16;393.60;;;179.90;;
19448;SDS011;9863;49.404;8.246;2022-09-19T03:18:50;391.70;;;172.80;;
19448;SDS011;9863;49.404;8.246;2022-09-19T03:21:24;399.23;;;182.18;;
19448;SDS011;9863;49.404;8.246;2022-09-19T03:23:54;418.38;;;221.43;;
19448;SDS011;9863;49.404;8.246;2022-09-19T03:26:27;382.02;;;177.23;;
19448;SDS011;9863;49.404;8.246;2022-09-19T03:29:01;395.25;;;179.57;;
19448;SDS011;9863;49.404;8.246;2022-09-19T03:31:48;385.35;;;173.25;;
19448;SDS011;9863;49.404;8.246;2022-09-19T03:34:21;387.05;;;182.90;;
19448;SDS011;9863;49.404;8.246;2022-09-19T03:36:51;385.17;;;170.52;;
19448;SDS011;9863;49.404;8.246;2022-09-19T03:39:26;389.35;;;175.23;;
19448;SDS011;9863;49.404;8.246;2022-09-19T03:41:55;404.90;;;183.43;;
19448;SDS011;9863;49.404;8.246;2022-09-19T03:44:23;388.13;;;174.18;;
19448;SDS011;9863;49.404;8.246;2022-09-19T03:46:51;389.42;;;178.45;;
19448;SDS011;9863;49.404;8.246;2022-09-19T03:49:22;382.65;;;181.50;;
19448;SDS011;9863;49.404;8.246;2022-09-19T03:51:52;396.83;;;187.75;;
19448;SDS011;9863;49.404;8.246;2022-09-19T03:54:20;388.35;;;184.93;;
19448;SDS011;9863;49.404;8.246;2022-09-19T03:56:47;400.27;;;187.07;;
19448;SDS011;9863;49.404;8.246;2022-09-19T03:59:16;385.80;;;177.07;;
19448;SDS011;9863;49.404;8.246;2022-09-19T04:01:45;372.30;;;179.32;;
19448;SDS011;9863;49.404;8.246;2022-09-19T04:04:15;381.42;;;183.43;;
19448;SDS011;9863;49.404;8.246;2022-09-19T04:06:54;410.20;;;191.48;;
19448;SDS011;9863;49.404;8.246;2022-09-19T04:09:24;391.02;;;188.43;;
19448;SDS011;9863;49.404;8.246;2022-09-19T04:11:58;387.27;;;195.40;;
19448;SDS011;9863;49.404;8.246;2022-09-19T04:14:34;400.00;;;189.98;;
19448;SDS011;9863;49.404;8.246;2022-09-19T04:17:02;379.05;;;180.00;;
19448;SDS011;9863;49.404;8.246;2022-09-19T04:19:53;396.63;;;194.90;;
19448;SDS011;9863;49.404;8.246;2022-09-19T04:22:28;410.38;;;202.95;;
19448;SDS011;9863;49.404;8.246;2022-09-19T04:25:16;408.17;;;190.48;;
19448;SDS011;9863;49.404;8.246;2022-09-19T04:28:01;385.67;;;180.32;;
19448;SDS011;9863;49.404;8.246;2022-09-19T04:30:34;389.60;;;189.23;;
19448;SDS011;9863;49.404;8.246;2022-09-19T04:33:04;384.77;;;184.70;;
19448;SDS011;9863;49.404;8.246;2022-09-19T04:35:39;394.85;;;186.60;;
19448;SDS011;9863;49.404;8.246;2022-09-19T04:38:13;390.52;;;189.60;;
19448;SDS011;9863;49.404;8.246;2022-09-19T04:40:46;389.75;;;190.05;;
19448;SDS011;9863;49.404;8.246;2022-09-19T04:43:17;392.45;;;184.45;;
19448;SDS011;9863;49.404;8.246;2022-09-19T04:45:58;385.60;;;180.02;;
19448;SDS011;9863;49.404;8.246;2022-09-19T04:48:36;389.73;;;183.95;;
19448;SDS011;9863;49.404;8.246;2022-09-19T04:51:04;379.92;;;182.90;;
19448;SDS011;9863;49.404;8.246;2022-09-19T04:53:33;384.88;;;178.38;;
19448;SDS011;9863;49.404;8.246;2022-09-19T04:56:08;378.83;;;180.80;;
19448;SDS011;9863;49.404;8.246;2022-09-19T04:58:40;379.73;;;176.30;;
19448;SDS011;9863;49.404;8.246;2022-09-19T05:01:10;386.02;;;178.23;;
19448;SDS011;9863;49.404;8.246;2022-09-19T05:03:41;395.90;;;188.88;;
19448;SDS011;9863;49.404;8.246;2022-09-19T05:06:11;386.50;;;184.35;;
19448;SDS011;9863;49.404;8.246;2022-09-19T05:08:41;384.17;;;180.90;;
19448;SDS011;9863;49.404;8.246;2022-09-19T05:11:14;379.97;;;176.63;;
19448;SDS011;9863;49.404;8.246;2022-09-19T05:13:45;392.17;;;184.40;;
19448;SDS011;9863;49.404;8.246;2022-09-19T05:16:15;376.30;;;174.68;;
19448;SDS011;9863;49.404;8.246;2022-09-19T05:18:50;380.10;;;172.80;;
19448;SDS011;9863;49.404;8.246;2022-09-19T05:21:19;385.13;;;177.77;;
19448;SDS011;9863;49.404;8.246;2022-09-19T05:23:47;401.25;;;190.02;;
19448;SDS011;9863;49.404;8.246;2022-09-19T05:26:15;382.10;;;176.47;;
19448;SDS011;9863;49.404;8.246;2022-09-19T05:28:49;380.60;;;175.10;;
19448;SDS011;9863;49.404;8.246;2022-09-19T05:31:20;391.33;;;179.13;;
19448;SDS011;9863;49.404;8.246;2022-09-19T05:34:01;377.48;;;178.15;;
19448;SDS011;9863;49.404;8.246;2022-09-19T05:36:31;385.30;;;174.43;;
19448;SDS011;9863;49.404;8.246;2022-09-19T05:39:25;381.97;;;170.40;;
19448;SDS011;9863;49.404;8.246;2022-09-19T05:42:12;382.93;;;164.50;;
19448;SDS011;9863;49.404;8.246;2022-09-19T05:44:39;378.90;;;168.60;;
19448;SDS011;9863;49.404;8.246;2022-09-19T05:47:07;375.23;;;177.70;;
19448;SDS011;9863;49.404;8.246;2022-09-19T05:49:39;387.67;;;180.60;;
19448;SDS011;9863;49.404;8.246;2022-09-19T05:52:07;376.93;;;175.43;;
19448;SDS011;9863;49.404;8.246;2022-09-19T05:54:54;370.70;;;171.47;;
19448;SDS011;9863;49.404;8.246;2022-09-19T05:57:57;396.00;;;182.35;;
19448;SDS011;9863;49.404;8.246;2022-09-19T06:00:26;379.67;;;167.10;;
19448;SDS011;9863;49.404;8.246;2022-09-19T06:02:55;382.77;;;181.80;;
19448;SDS011;9863;49.404;8.246;2022-09-19T06:05:32;385.17;;;177.30;;
19448;SDS011;9863;49.404;8.246;2022-09-19T06:08:06;379.63;;;179.43;;
19448;SDS011;9863;49.404;8.246;2022-09-19T06:10:35;385.17;;;185.53;;
19448;SDS011;9863;49.404;8.246;2022-09-19T06:13:07;382.13;;;182.93;;
19448;SDS011;9863;49.404;8.246;2022-09-19T06:15:39;384.57;;;183.03;;
19448;SDS011;9863;49.404;8.246;2022-09-19T06:18:10;377.13;;;194.13;;
19448;SDS011;9863;49.404;8.246;2022-09-19T06:20:41;385.47;;;188.73;;
19448;SDS011;9863;49.404;8.246;2022-09-19T06:23:16;386.90;;;192.60;;
19448;SDS011;9863;49.404;8.246;2022-09-19T06:25:44;385.85;;;192.40;;
19448;SDS011;9863;49.404;8.246;2022-09-19T06:28:12;387.73;;;192.13;;
19448;SDS011;9863;49.404;8.246;2022-09-19T06:30:52;384.17;;;195.82;;
19448;SDS011;9863;49.404;8.246;2022-09-19T06:33:24;397.23;;;203.93;;
19448;SDS011;9863;49.404;8.246;2022-09-19T06:35:59;387.08;;;203.00;;
19448;SDS011;9863;49.404;8.246;2022-09-19T06:38:31;388.10;;;199.55;;
19448;SDS011;9863;49.404;8.246;2022-09-19T06:41:16;379.95;;;201.75;;
19448;SDS011;9863;49.404;8.246;2022-09-19T06:44:00;389.40;;;209.50;;
19448;SDS011;9863;49.404;8.246;2022-09-19T06:46:39;387.33;;;208.15;;
19448;SDS011;9863;49.404;8.246;2022-09-19T06:49:09;382.08;;;213.70;;
19448;SDS011;9863;49.404;8.246;2022-09-19T06:51:43;391.65;;;221.68;;
19448;SDS011;9863;49.404;8.246;2022-09-19T06:54:11;388.27;;;229.70;;
19448;SDS011;9863;49.404;8.246;2022-09-19T06:56:39;393.85;;;233.32;;
19448;SDS011;9863;49.404;8.246;2022-09-19T06:59:10;393.48;;;231.40;;
19448;SDS011;9863;49.404;8.246;2022-09-19T07:01:39;394.38;;;239.82;;
19448;SDS011;9863;49.404;8.246;2022-09-19T07:04:07;387.98;;;229.68;;
19448;SDS011;9863;49.404;8.246;2022-09-19T07:06:53;388.58;;;234.55;;
19448;SDS011;9863;49.404;8.246;2022-09-19T07:09:23;391.42;;;236.10;;
19448;SDS011;9863;49.404;8.246;2022-09-19T07:11:51;409.73;;;248.57;;
19448;SDS011;9863;49.404;8.246;2022-09-19T07:14:26;395.10;;;238.25;;
19448;SDS011;9863;49.404;8.246;2022-09-19T07:16:56;395.30;;;249.80;;
19448;SDS011;9863;49.404;8.246;2022-09-19T07:19:24;401.63;;;265.10;;
19448;SDS011;9863;49.404;8.246;2022-09-19T07:22:30;396.75;;;245.60;;
19448;SDS011;9863;49.404;8.246;2022-09-19T07:25:21;403.90;;;255.68;;
19448;SDS011;9863;49.404;8.246;2022-09-19T07:27:58;400.45;;;263.50;;
19448;SDS011;9863;49.404;8.246;2022-09-19T07:30:33;408.40;;;272.90;;
19448;SDS011;9863;49.404;8.246;2022-09-19T07:33:03;405.67;;;272.02;;
19448;SDS011;9863;49.404;8.246;2022-09-19T07:35:35;399.50;;;271.48;;
19448;SDS011;9863;49.404;8.246;2022-09-19T07:38:04;405.42;;;284.77;;
19448;SDS011;9863;49.404;8.246;2022-09-19T07:40:53;407.80;;;272.60;;
19448;SDS011;9863;49.404;8.246;2022-09-19T07:43:29;398.75;;;267.85;;
19448;SDS011;9863;49.404;8.246;2022-09-19T07:46:32;406.13;;;281.65;;
19448;SDS011;9863;49.404;8.246;2022-09-19T07:49:26;405.52;;;291.98;;
19448;SDS011;9863;49.404;8.246;2022-09-19T07:52:14;404.05;;;284.80;;
19448;SDS011;9863;49.404;8.246;2022-09-19T07:54:42;411.05;;;300.88;;
19448;SDS011;9863;49.404;8.246;2022-09-19T07:57:10;411.55;;;310.17;;
19448;SDS011;9863;49.404;8.246;2022-09-19T07:59:38;411.25;;;308.45;;
19448;SDS011;9863;49.404;8.246;2022-09-19T08:02:08;418.40;;;319.08;;
19448;SDS011;9863;49.404;8.246;2022-09-19T08:04:37;411.40;;;314.60;;
19448;SDS011;9863;49.404;8.246;2022-09-19T08:07:05;419.88;;;319.95;;
19448;SDS011;9863;49.404;8.246;2022-09-19T08:09:37;412.02;;;326.20;;
19448;SDS011;9863;49.404;8.246;2022-09-19T08:12:23;422.05;;;335.10;;
19448;SDS011;9863;49.404;8.246;2022-09-19T08:15:06;415.20;;;331.55;;
19448;SDS011;9863;49.404;8.246;2022-09-19T08:17:34;426.65;;;351.75;;
19448;SDS011;9863;49.404;8.246;2022-09-19T08:20:03;423.55;;;353.17;;
19448;SDS011;9863;49.404;8.246;2022-09-19T08:22:36;418.98;;;360.67;;
19448;SDS011;9863;49.404;8.246;2022-09-19T08:25:08;422.17;;;357.55;;
19448;SDS011;9863;49.404;8.246;2022-09-19T08:27:38;17.48;;;4.10;;
19448;SDS011;9863;49.404;8.246;2022-09-19T08:30:11;23.77;;;5.75;;
19448;SDS011;9863;49.404;8.246;2022-09-19T08:32:43;134.85;;;123.35;;
19448;SDS011;9863;49.404;8.246;2022-09-19T08:35:13;401.55;;;320.05;;
19448;SDS011;9863;49.404;8.246;2022-09-19T08:37:43;394.13;;;315.38;;
19448;SDS011;9863;49.404;8.246;2022-09-19T08:40:18;0.10;;;0.10;;
19448;SDS011;9863;49.404;8.246;2022-09-19T08:48:46;390.67;;;283.20;;
19448;SDS011;9863;49.404;8.246;2022-09-19T08:54:10;13.52;;;3.22;;
19448;SDS011;9863;49.404;8.246;2022-09-19T08:56:44;2.60;;;0.93;;
19448;SDS011;9863;49.404;8.246;2022-09-19T08:59:14;362.23;;;315.33;;
19448;SDS011;9863;49.404;8.246;2022-09-19T09:01:53;147.52;;;134.95;;
19448;SDS011;9863;49.404;8.246;2022-09-19T09:04:58;4.65;;;1.40;;
19448;SDS011;9863;49.404;8.246;2022-09-19T09:07:39;1.38;;;0.63;;
19448;SDS011;9863;49.404;8.246;2022-09-19T09:10:53;3.10;;;1.25;;
19448;SDS011;9863;49.404;8.246;2022-09-19T09:23:04;2.40;;;1.05;;
19448;SDS011;9863;49.404;8.246;2022-09-19T09:26:36;0.22;;;0.22;;
19448;SDS011;9863;49.404;8.246;2022-09-19T09:29:12;1.60;;;0.63;;
19448;SDS011;9863;49.404;8.246;2022-09-19T09:32:21;0.20;;;0.20;;
19448;SDS011;9863;49.404;8.246;2022-09-19T09:37:56;0.68;;;0.57;;
19448;SDS011;9863;49.404;8.246;2022-09-19T09:40:41;3.38;;;1.42;;
19448;SDS011;9863;49.404;8.246;2022-09-19T09:43:51;5.43;;;2.17;;
19448;SDS011;9863;49.404;8.246;2022-09-19T09:49:23;4.30;;;2.00;;
19448;SDS011;9863;49.404;8.246;2022-09-19T09:58:46;5.65;;;2.03;;
19448;SDS011;9863;49.404;8.246;2022-09-19T10:04:44;7.72;;;2.50;;
19448;SDS011;9863;49.404;8.246;2022-09-19T10:07:31;11.32;;;2.75;;
19448;SDS011;9863;49.404;8.246;2022-09-19T10:10:14;10.27;;;2.70;;
19448;SDS011;9863;49.404;8.246;2022-09-19T10:15:57;7.90;;;2.20;;
19448;SDS011;9863;49.404;8.246;2022-09-19T10:18:36;18.33;;;4.25;;
19448;SDS011;9863;49.404;8.246;2022-09-19T10:21:18;13.45;;;2.85;;
19448;SDS011;9863;49.404;8.246;2022-09-19T10:23:52;16.15;;;3.83;;
19448;SDS011;9863;49.404;8.246;2022-09-19T10:26:28;10.77;;;2.80;;
19448;SDS011;9863;49.404;8.246;2022-09-19T10:29:04;10.50;;;2.60;;
19448;SDS011;9863;49.404;8.246;2022-09-19T10:31:57;9.65;;;2.42;;
19448;SDS011;9863;49.404;8.246;2022-09-19T10:35:07;14.75;;;3.38;;
19448;SDS011;9863;49.404;8.246;2022-09-19T10:38:09;11.95;;;2.88;;
19448;SDS011;9863;49.404;8.246;2022-09-19T10:40:50;14.05;;;3.22;;
19448;SDS011;9863;49.404;8.246;2022-09-19T10:44:00;16.20;;;3.42;;
19448;SDS011;9863;49.404;8.246;2022-09-19T10:46:50;25.63;;;5.30;;
19448;SDS011;9863;49.404;8.246;2022-09-19T10:49:30;17.02;;;3.50;;
19448;SDS011;9863;49.404;8.246;2022-09-19T10:52:25;16.27;;;3.40;;
19448;SDS011;9863;49.404;8.246;2022-09-19T10:55:19;14.40;;;3.00;;
19448;SDS011;9863;49.404;8.246;2022-09-19T10:57:55;23.35;;;4.80;;
19448;SDS011;9863;49.404;8.246;2022-09-19T11:00:46;13.23;;;2.90;;
19448;SDS011;9863;49.404;8.246;2022-09-19T11:03:26;14.18;;;3.15;;
19448;SDS011;9863;49.404;8.246;2022-09-19T11:08:52;17.38;;;3.72;;
19448;SDS011;9863;49.404;8.246;2022-09-19T11:11:36;15.80;;;3.40;;
19448;SDS011;9863;49.404;8.246;2022-09-19T11:26:25;12.40;;;2.80;;
19448;SDS011;9863;49.404;8.246;2022-09-19T11:29:24;11.93;;;3.00;;
19448;SDS011;9863;49.404;8.246;2022-09-19T11:32:32;10.48;;;2.60;;
19448;SDS011;9863;49.404;8.246;2022-09-19T11:35:54;14.05;;;3.35;;
19448;SDS011;9863;49.404;8.246;2022-09-19T11:38:40;14.70;;;3.05;;
19448;SDS011;9863;49.404;8.246;2022-09-19T12:00:03;13.73;;;2.97;;
19448;SDS011;9863;49.404;8.246;2022-09-19T12:12:00;17.88;;;3.83;;
19448;SDS011;9863;49.404;8.246;2022-09-19T12:15:16;15.18;;;3.40;;
19448;SDS011;9863;49.404;8.246;2022-09-19T12:17:53;13.05;;;2.88;;
19448;SDS011;9863;49.404;8.246;2022-09-19T12:20:40;19.98;;;4.25;;
19448;SDS011;9863;49.404;8.246;2022-09-19T12:23:18;14.57;;;3.30;;
19448;SDS011;9863;49.404;8.246;2022-09-19T12:26:23;17.92;;;4.05;;
19448;SDS011;9863;49.404;8.246;2022-09-19T12:29:03;19.33;;;4.35;;
19448;SDS011;9863;49.404;8.246;2022-09-19T12:31:48;15.30;;;3.40;;
19448;SDS011;9863;49.404;8.246;2022-09-19T12:34:38;9.40;;;2.40;;
19448;SDS011;9863;49.404;8.246;2022-09-19T12:37:21;14.73;;;3.58;;
19448;SDS011;9863;49.404;8.246;2022-09-19T12:43:23;13.20;;;3.58;;
19448;SDS011;9863;49.404;8.246;2022-09-19T13:01:35;13.93;;;3.97;;
19448;SDS011;9863;49.404;8.246;2022-09-19T13:04:38;16.15;;;4.70;;
19448;SDS011;9863;49.404;8.246;2022-09-19T13:07:51;14.25;;;3.70;;
19448;SDS011;9863;49.404;8.246;2022-09-19T13:13:36;18.80;;;4.97;;
19448;SDS011;9863;49.404;8.246;2022-09-19T13:16:20;9.55;;;2.70;;
19448;SDS011;9863;49.404;8.246;2022-09-19T13:18:59;9.88;;;2.85;;
19448;SDS011;9863;49.404;8.246;2022-09-19T13:21:48;10.73;;;3.08;;
19448;SDS011;9863;49.404;8.246;2022-09-19T13:27:09;9.48;;;2.78;;
19448;SDS011;9863;49.404;8.246;2022-09-19T13:59:31;8.45;;;2.95;;
19448;SDS011;9863;49.404;8.246;2022-09-19T14:10:44;5.03;;;2.22;;
19448;SDS011;9863;49.404;8.246;2022-09-19T14:18:29;3.15;;;2.03;;
19448;SDS011;9863;49.404;8.246;2022-09-19T14:24:02;1.63;;;1.17;;
19448;SDS011;9863;49.404;8.246;2022-09-19T14:26:54;1.10;;;0.85;;
19448;SDS011;9863;49.404;8.246;2022-09-19T14:29:48;2.03;;;1.45;;
19448;SDS011;9863;49.404;8.246;2022-09-19T14:32:31;1.02;;;0.90;;
19448;SDS011;9863;49.404;8.246;2022-09-19T14:35:47;0.63;;;0.63;;
19448;SDS011;9863;49.404;8.246;2022-09-19T14:38:36;0.95;;;0.82;;
19448;SDS011;9863;49.404;8.246;2022-09-19T14:47:46;0.73;;;0.68;;
19448;SDS011;9863;49.404;8.246;2022-09-19T14:50:22;0.60;;;0.60;;
19448;SDS011;9863;49.404;8.246;2022-09-19T14:52:56;0.80;;;0.73;;
19448;SDS011;9863;49.404;8.246;2022-09-19T14:56:02;1.25;;;1.02;;
19448;SDS011;9863;49.404;8.246;2022-09-19T14:58:40;1.10;;;0.98;;
19448;SDS011;9863;49.404;8.246;2022-09-19T15:04:12;1.63;;;0.90;;
19448;SDS011;9863;49.404;8.246;2022-09-19T15:06:47;1.58;;;1.13;;
19448;SDS011;9863;49.404;8.246;2022-09-19T15:12:11;0.80;;;0.75;;
19448;SDS011;9863;49.404;8.246;2022-09-19T15:14:51;0.80;;;0.73;;
19448;SDS011;9863;49.404;8.246;2022-09-19T15:17:28;0.52;;;0.52;;
19448;SDS011;9863;49.404;8.246;2022-09-19T15:20:08;0.63;;;0.63;;
19448;SDS011;9863;49.404;8.246;2022-09-19T15:22:49;0.60;;;0.60;;
19448;SDS011;9863;49.404;8.246;2022-09-19T15:25:24;0.50;;;0.50;;
19448;SDS011;9863;49.404;8.246;2022-09-19T15:28:19;0.40;;;0.40;;
19448;SDS011;9863;49.404;8.246;2022-09-19T15:31:15;0.50;;;0.50;;
19448;SDS011;9863;49.404;8.246;2022-09-19T15:33:56;0.68;;;0.57;;
19448;SDS011;9863;49.404;8.246;2022-09-19T15:36:40;0.60;;;0.60;;
19448;SDS011;9863;49.404;8.246;2022-09-19T15:39:12;0.68;;;0.65;;
19448;SDS011;9863;49.404;8.246;2022-09-19T15:41:42;0.60;;;0.60;;
19448;SDS011;9863;49.404;8.246;2022-09-19T15:44:26;0.90;;;0.80;;
19448;SDS011;9863;49.404;8.246;2022-09-19T15:47:06;0.50;;;0.50;;
19448;SDS011;9863;49.404;8.246;2022-09-19T15:49:42;0.40;;;0.40;;
19448;SDS011;9863;49.404;8.246;2022-09-19T15:52:18;0.45;;;0.45;;
19448;SDS011;9863;49.404;8.246;2022-09-19T15:54:56;0.45;;;0.45;;
19448;SDS011;9863;49.404;8.246;2022-09-19T15:57:26;0.30;;;0.30;;
19448;SDS011;9863;49.404;8.246;2022-09-19T16:00:05;0.20;;;0.20;;
19448;SDS011;9863;49.404;8.246;2022-09-19T16:02:52;0.10;;;0.10;;
19448;SDS011;9863;49.404;8.246;2022-09-19T16:05:30;0.20;;;0.20;;
19448;SDS011;9863;49.404;8.246;2022-09-19T16:08:02;0.20;;;0.20;;
19448;SDS011;9863;49.404;8.246;2022-09-19T16:11:26;0.13;;;0.13;;
19448;SDS011;9863;49.404;8.246;2022-09-19T16:14:03;0.35;;;0.35;;
19448;SDS011;9863;49.404;8.246;2022-09-19T16:16:37;0.45;;;0.45;;
19448;SDS011;9863;49.404;8.246;2022-09-19T16:19:05;0.40;;;0.40;;
19448;SDS011;9863;49.404;8.246;2022-09-19T16:21:46;0.90;;;0.65;;
19448;SDS011;9863;49.404;8.246;2022-09-19T16:24:21;0.52;;;0.52;;
19448;SDS011;9863;49.404;8.246;2022-09-19T16:26:53;0.73;;;0.73;;
19448;SDS011;9863;49.404;8.246;2022-09-19T16:29:29;0.30;;;0.30;;
19448;SDS011;9863;49.404;8.246;2022-09-19T16:32:11;0.57;;;0.57;;
19448;SDS011;9863;49.404;8.246;2022-09-19T16:34:44;0.50;;;0.50;;
19448;SDS011;9863;49.404;8.246;2022-09-19T16:37:25;0.38;;;0.38;;
19448;SDS011;9863;49.404;8.246;2022-09-19T16:40:00;0.60;;;0.60;;
19448;SDS011;9863;49.404;8.246;2022-09-19T16:42:46;0.60;;;0.60;;
19448;SDS011;9863;49.404;8.246;2022-09-19T16:45:21;0.52;;;0.52;;
19448;SDS011;9863;49.404;8.246;2022-09-19T16:48:07;0.60;;;0.60;;
19448;SDS011;9863;49.404;8.246;2022-09-19T16:50:39;0.65;;;0.63;;
19448;SDS011;9863;49.404;8.246;2022-09-19T16:53:12;0.32;;;0.32;;
19448;SDS011;9863;49.404;8.246;2022-09-19T16:55:41;0.30;;;0.30;;
19448;SDS011;9863;49.404;8.246;2022-09-19T16:58:18;0.30;;;0.30;;
19448;SDS011;9863;49.404;8.246;2022-09-19T17:00:46;0.30;;;0.30;;
19448;SDS011;9863;49.404;8.246;2022-09-19T17:03:14;0.20;;;0.20;;
19448;SDS011;9863;49.404;8.246;2022-09-19T17:05:43;0.30;;;0.30;;
19448;SDS011;9863;49.404;8.246;2022-09-19T17:08:11;0.30;;;0.30;;
19448;SDS011;9863;49.404;8.246;2022-09-19T17:10:39;0.68;;;0.68;;
19448;SDS011;9863;49.404;8.246;2022-09-19T17:13:09;0.35;;;0.35;;
19448;SDS011;9863;49.404;8.246;2022-09-19T17:15:52;0.17;;;0.17;;
19448;SDS011;9863;49.404;8.246;2022-09-19T17:18:25;0.40;;;0.40;;
19448;SDS011;9863;49.404;8.246;2022-09-19T17:20:54;0.30;;;0.30;;
19448;SDS011;9863;49.404;8.246;2022-09-19T17:23:26;0.40;;;0.40;;
19448;SDS011;9863;49.404;8.246;2022-09-19T17:25:56;0.57;;;0.57;;
19448;SDS011;9863;49.404;8.246;2022-09-19T17:28:26;0.55;;;0.55;;
19448;SDS011;9863;49.404;8.246;2022-09-19T17:30:56;0.68;;;0.68;;
19448;SDS011;9863;49.404;8.246;2022-09-19T17:33:26;0.20;;;0.20;;
19448;SDS011;9863;49.404;8.246;2022-09-19T17:35:56;0.30;;;0.30;;
19448;SDS011;9863;49.404;8.246;2022-09-19T17:38:27;0.10;;;0.10;;
19448;SDS011;9863;49.404;8.246;2022-09-19T17:40:58;0.08;;;0.08;;
19448;SDS011;9863;49.404;8.246;2022-09-19T17:43:27;0.10;;;0.10;;
19448;SDS011;9863;49.404;8.246;2022-09-19T17:45:56;0.47;;;0.47;;
19448;SDS011;9863;49.404;8.246;2022-09-19T17:48:37;0.20;;;0.20;;
19448;SDS011;9863;49.404;8.246;2022-09-19T17:51:08;0.15;;;0.15;;
19448;SDS011;9863;49.404;8.246;2022-09-19T17:53:46;0.00;;;0.00;;
19448;SDS011;9863;49.404;8.246;2022-09-19T17:56:18;0.10;;;0.10;;
19448;SDS011;9863;49.404;8.246;2022-09-19T18:01:37;0.10;;;0.10;;
19448;SDS011;9863;49.404;8.246;2022-09-19T18:04:24;0.30;;;0.30;;
19448;SDS011;9863;49.404;8.246;2022-09-19T18:06:51;0.20;;;0.20;;
19448;SDS011;9863;49.404;8.246;2022-09-19T18:09:19;0.30;;;0.30;;
19448;SDS011;9863;49.404;8.246;2022-09-19T18:11:47;0.30;;;0.30;;
19448;SDS011;9863;49.404;8.246;2022-09-19T18:14:18;0.30;;;0.30;;
19448;SDS011;9863;49.404;8.246;2022-09-19T18:16:47;0.28;;;0.28;;
19448;SDS011;9863;49.404;8.246;2022-09-19T18:19:16;0.70;;;0.70;;
19448;SDS011;9863;49.404;8.246;2022-09-19T18:21:44;0.43;;;0.43;;
19448;SDS011;9863;49.404;8.246;2022-09-19T18:24:15;0.38;;;0.38;;
19448;SDS011;9863;49.404;8.246;2022-09-19T18:26:45;0.50;;;0.50;;
19448;SDS011;9863;49.404;8.246;2022-09-19T18:29:13;0.93;;;0.90;;
19448;SDS011;9863;49.404;8.246;2022-09-19T18:31:42;0.50;;;0.50;;
19448;SDS011;9863;49.404;8.246;2022-09-19T18:34:10;0.30;;;0.30;;
19448;SDS011;9863;49.404;8.246;2022-09-19T18:36:38;0.43;;;0.43;;
19448;SDS011;9863;49.404;8.246;2022-09-19T18:39:07;0.30;;;0.30;;
19448;SDS011;9863;49.404;8.246;2022-09-19T18:41:36;0.20;;;0.20;;
19448;SDS011;9863;49.404;8.246;2022-09-19T18:44:05;0.20;;;0.20;;
19448;SDS011;9863;49.404;8.246;2022-09-19T18:46:33;0.60;;;0.60;;
19448;SDS011;9863;49.404;8.246;2022-09-19T18:49:02;0.70;;;0.70;;
19448;SDS011;9863;49.404;8.246;2022-09-19T18:51:30;0.70;;;0.70;;